Time;durP1;ratioP1;P1;durP2;ratioP2;P2;SDS_P1;SDS_P2;PMS_P1;PMS_P2;Temp;Humidity;BMP_temperature;BMP_pressure;BME280_temperature;BME280_humidity;BME280_pressure;Samples;Min_cycle;Max_cycle;Signal;HPM_P1;HPM_P2
2022/07/13 00:01:32;;;;;;;;;;;21.90;55.50;;;;;;5013934;28;19924;-62
2022/07/13 00:03:57;;;;;;;;;;;22.00;55.00;;;;;;5014028;28;19964;-62
2022/07/13 00:06:23;;;;;;;;;;;21.90;54.50;;;;;;5013859;28;19940;-64
2022/07/13 00:08:49;;;;;;;;;;;21.70;54.60;;;;;;5013452;28;19928;-64
2022/07/13 00:11:14;;;;;;;;;;;21.80;54.80;;;;;;5013754;28;19917;-65
2022/07/13 00:13:40;;;;;;;;;;;21.90;54.30;;;;;;5013692;28;19918;-63
2022/07/13 00:16:06;;;;;;;;;;;22.00;54.30;;;;;;5013658;28;19909;-63
2022/07/13 00:18:31;;;;;;;;;;;22.10;53.70;;;;;;5013581;28;19910;-63
2022/07/13 00:20:57;;;;;;;;;;;22.10;53.90;;;;;;5013428;28;20362;-65
2022/07/13 00:23:23;;;;;;;;;;;22.20;53.20;;;;;;5013382;28;19993;-63
2022/07/13 00:25:48;;;;;;;;;;;22.20;53.10;;;;;;5013523;28;20004;-63
2022/07/13 00:28:14;;;;;;;;;;;22.20;52.90;;;;;;5013486;28;19973;-64
2022/07/13 00:30:40;;;;;;;;;;;22.20;52.50;;;;;;5013329;28;19913;-63
2022/07/13 00:33:07;;;;;;;;;;;22.20;52.10;;;;;;5013616;28;19916;-63
2022/07/13 00:35:32;;;;;;;;;;;22.20;52.20;;;;;;5013136;28;19909;-63
2022/07/13 00:37:58;;;;;;;;;;;22.20;52.00;;;;;;5013289;28;19956;-64
2022/07/13 00:40:24;;;;;;;;;;;22.20;52.00;;;;;;5013284;28;19913;-63
2022/07/13 00:42:49;;;;;;;;;;;22.20;52.20;;;;;;5013070;28;19984;-64
2022/07/13 00:45:15;;;;;;;;;;;22.20;52.00;;;;;;5013141;28;19909;-64
2022/07/13 00:47:41;;;;;;;;;;;22.20;52.40;;;;;;5013021;28;20441;-63
2022/07/13 00:50:07;;;;;;;;;;;22.10;52.60;;;;;;5013185;28;19917;-64
2022/07/13 00:52:34;;;;;;;;;;;22.10;52.70;;;;;;5012994;28;20290;-63
2022/07/13 00:55:00;;;;;;;;;;;22.10;52.60;;;;;;5013075;28;19920;-64
2022/07/13 00:57:27;;;;;;;;;;;22.10;52.90;;;;;;5013045;28;19910;-64
2022/07/13 00:59:52;;;;;;;;;;;22.10;52.90;;;;;;5013131;28;19916;-64
2022/07/13 01:02:18;;;;;;;;;;;22.20;51.40;;;;;;5012792;28;19918;-64
2022/07/13 01:04:43;;;;;;;;;;;22.30;51.40;;;;;;5012730;28;19963;-63
2022/07/13 01:07:09;;;;;;;;;;;22.30;51.90;;;;;;5012897;28;19913;-67
2022/07/13 01:09:35;;;;;;;;;;;22.40;51.90;;;;;;5012510;28;19925;-67
2022/07/13 01:12:00;;;;;;;;;;;22.30;52.10;;;;;;5012784;28;20297;-64
2022/07/13 01:14:27;;;;;;;;;;;22.30;51.80;;;;;;5012834;28;19960;-66
2022/07/13 01:16:53;;;;;;;;;;;22.40;51.30;;;;;;5012834;28;19941;-64
2022/07/13 01:19:18;;;;;;;;;;;22.40;51.90;;;;;;5012659;28;19913;-68
2022/07/13 01:21:45;;;;;;;;;;;22.30;50.20;;;;;;5012436;28;20274;-70
2022/07/13 01:24:11;;;;;;;;;;;22.30;51.70;;;;;;5012665;28;19914;-67
2022/07/13 01:26:37;;;;;;;;;;;22.30;52.00;;;;;;5012615;28;20446;-65
2022/07/13 01:29:03;;;;;;;;;;;22.30;51.80;;;;;;5012279;28;19921;-64
2022/07/13 01:31:33;;;;;;;;;;;22.30;52.00;;;;;;5012426;28;19914;-65
2022/07/13 01:33:59;;;;;;;;;;;22.20;52.10;;;;;;5012226;28;19909;-66
2022/07/13 01:36:25;;;;;;;;;;;22.20;51.70;;;;;;5011883;28;19936;-65
2022/07/13 01:38:51;;;;;;;;;;;22.20;51.90;;;;;;5012225;28;19913;-69
2022/07/13 01:41:18;;;;;;;;;;;22.10;52.10;;;;;;5012284;28;19918;-67
2022/07/13 01:43:44;;;;;;;;;;;22.00;50.90;;;;;;5012332;28;19961;-68
2022/07/13 01:46:10;;;;;;;;;;;22.00;51.90;;;;;;5012437;28;19996;-64
2022/07/13 01:48:36;;;;;;;;;;;22.00;52.60;;;;;;5012149;28;20008;-66
2022/07/13 01:51:01;;;;;;;;;;;22.00;52.10;;;;;;5012406;28;19959;-63
2022/07/13 01:53:27;;;;;;;;;;;21.70;52.70;;;;;;5012333;28;19918;-63
2022/07/13 01:55:53;;;;;;;;;;;21.70;53.60;;;;;;5012024;28;19918;-60
2022/07/13 01:58:18;;;;;;;;;;;21.70;53.40;;;;;;5012266;28;20251;-63
2022/07/13 02:00:44;;;;;;;;;;;21.80;52.90;;;;;;5012301;28;19917;-62
2022/07/13 02:03:09;;;;;;;;;;;21.80;52.80;;;;;;5012000;28;20305;-63
2022/07/13 02:05:35;;;;;;;;;;;21.80;52.50;;;;;;5012097;28;19913;-63
2022/07/13 02:08:01;;;;;;;;;;;21.70;52.50;;;;;;5012074;28;19917;-62
2022/07/13 02:10:34;;;;;;;;;;;21.70;53.50;;;;;;5012107;28;19957;-61
2022/07/13 02:13:03;;;;;;;;;;;21.80;53.10;;;;;;5012022;28;19909;-62
2022/07/13 02:15:29;;;;;;;;;;;21.80;52.90;;;;;;4998370;28;20000;-62
2022/07/13 02:17:54;;;;;;;;;;;21.90;52.30;;;;;;5012142;28;19997;-63
2022/07/13 02:20:20;;;;;;;;;;;22.00;52.60;;;;;;5010744;28;19967;-62
2022/07/13 02:22:46;;;;;;;;;;;22.00;52.60;;;;;;5012087;28;19917;-64
2022/07/13 02:25:14;;;;;;;;;;;21.90;52.70;;;;;;5011595;28;20353;-61
2022/07/13 02:27:40;;;;;;;;;;;21.90;52.60;;;;;;5012045;28;19918;-63
2022/07/13 02:30:06;;;;;;;;;;;21.80;52.60;;;;;;5011877;28;19910;-61
2022/07/13 02:32:32;;;;;;;;;;;21.80;52.50;;;;;;5011747;28;20008;-64
2022/07/13 02:34:57;;;;;;;;;;;21.80;52.90;;;;;;5011904;28;20424;-62
2022/07/13 02:37:23;;;;;;;;;;;21.80;53.20;;;;;;5012042;28;19972;-62
2022/07/13 02:39:51;;;;;;;;;;;21.80;52.70;;;;;;5011897;28;20312;-62
2022/07/13 02:42:17;;;;;;;;;;;21.70;52.60;;;;;;5011544;28;19921;-72
2022/07/13 02:44:42;;;;;;;;;;;21.70;52.90;;;;;;5011790;28;19914;-62
2022/07/13 02:47:08;;;;;;;;;;;21.70;52.80;;;;;;5012865;28;19914;-63
2022/07/13 02:49:33;;;;;;;;;;;21.70;53.30;;;;;;5015458;28;20409;-62
2022/07/13 02:51:59;;;;;;;;;;;21.70;53.50;;;;;;5015364;28;19922;-61
2022/07/13 02:54:24;;;;;;;;;;;21.60;53.10;;;;;;5015318;28;19914;-62
2022/07/13 02:56:50;;;;;;;;;;;21.60;53.60;;;;;;5015187;28;19913;-65
2022/07/13 02:59:15;;;;;;;;;;;21.50;53.40;;;;;;5015165;28;19917;-72
2022/07/13 03:01:41;;;;;;;;;;;21.50;53.90;;;;;;5015080;28;19921;-63
2022/07/13 03:04:06;;;;;;;;;;;21.40;54.00;;;;;;5015080;28;20427;-62
2022/07/13 03:06:32;;;;;;;;;;;21.30;54.70;;;;;;5015060;28;20277;-62
2022/07/13 03:08:58;;;;;;;;;;;21.20;55.30;;;;;;5014775;28;19925;-64
2022/07/13 03:11:23;;;;;;;;;;;21.30;54.70;;;;;;5014771;28;20068;-64
2022/07/13 03:13:49;;;;;;;;;;;21.20;54.50;;;;;;5015049;28;19909;-68
2022/07/13 03:16:14;;;;;;;;;;;21.20;54.90;;;;;;5014738;28;19932;-63
2022/07/13 03:18:40;;;;;;;;;;;21.20;54.30;;;;;;5014713;28;19945;-60
2022/07/13 03:21:07;;;;;;;;;;;21.20;53.30;;;;;;5014804;28;19909;-70
2022/07/13 03:23:33;;;;;;;;;;;21.30;53.10;;;;;;5014703;28;19910;-62
2022/07/13 03:25:58;;;;;;;;;;;21.30;52.80;;;;;;5014756;28;20318;-61
2022/07/13 03:28:24;;;;;;;;;;;21.40;52.40;;;;;;5014449;28;19920;-63
2022/07/13 03:30:49;;;;;;;;;;;21.50;51.80;;;;;;5014629;28;20412;-65
2022/07/13 03:33:15;;;;;;;;;;;21.50;51.90;;;;;;5014656;28;19913;-64
2022/07/13 03:35:40;;;;;;;;;;;21.60;51.50;;;;;;5014479;28;19913;-70
2022/07/13 03:38:06;;;;;;;;;;;21.70;51.60;;;;;;5014889;28;19910;-64
2022/07/13 03:40:31;;;;;;;;;;;21.70;51.40;;;;;;5014682;28;19909;-60
2022/07/13 03:42:57;;;;;;;;;;;21.60;50.90;;;;;;5014370;28;19929;-64
2022/07/13 03:45:22;;;;;;;;;;;21.60;50.80;;;;;;5013885;28;20289;-66
2022/07/13 03:47:48;;;;;;;;;;;21.70;51.00;;;;;;5014345;28;19917;-61
2022/07/13 03:50:13;;;;;;;;;;;21.70;50.70;;;;;;5014249;28;19913;-62
2022/07/13 03:52:39;;;;;;;;;;;21.70;50.30;;;;;;5014004;28;20262;-63
2022/07/13 03:55:05;;;;;;;;;;;21.70;50.20;;;;;;5013875;28;19920;-61
2022/07/13 03:57:31;;;;;;;;;;;21.80;50.20;;;;;;5013635;28;20008;-62
2022/07/13 03:59:56;;;;;;;;;;;21.80;49.70;;;;;;5013939;28;19917;-62
2022/07/13 04:02:22;;;;;;;;;;;21.80;49.80;;;;;;5013795;28;20251;-61
2022/07/13 04:04:47;;;;;;;;;;;21.90;49.60;;;;;;5013803;28;19952;-60
2022/07/13 04:07:13;;;;;;;;;;;22.00;49.60;;;;;;5014041;28;19910;-65
2022/07/13 04:09:38;;;;;;;;;;;22.00;49.40;;;;;;5013488;28;20000;-62
2022/07/13 04:12:04;;;;;;;;;;;22.00;49.40;;;;;;5013722;28;19916;-62
2022/07/13 04:14:30;;;;;;;;;;;22.00;49.50;;;;;;5013630;28;19910;-61
2022/07/13 04:16:55;;;;;;;;;;;22.00;49.20;;;;;;5014073;28;19913;-61
2022/07/13 04:19:21;;;;;;;;;;;22.00;49.40;;;;;;5013534;28;19909;-61
2022/07/13 04:21:46;;;;;;;;;;;22.00;49.70;;;;;;5013523;28;19923;-63
2022/07/13 04:24:12;;;;;;;;;;;22.00;49.70;;;;;;5013501;28;20408;-63
2022/07/13 04:26:37;;;;;;;;;;;22.00;49.90;;;;;;5013546;28;19914;-63
2022/07/13 04:29:03;;;;;;;;;;;21.90;50.10;;;;;;5013289;28;19909;-62
2022/07/13 04:31:28;;;;;;;;;;;21.90;50.10;;;;;;5013102;28;20365;-60
2022/07/13 04:33:54;;;;;;;;;;;22.00;49.90;;;;;;5013524;28;19996;-62
2022/07/13 04:36:20;;;;;;;;;;;22.00;50.70;;;;;;5013301;28;20001;-64
2022/07/13 04:38:45;;;;;;;;;;;22.00;50.00;;;;;;5013136;28;19913;-64
2022/07/13 04:41:11;;;;;;;;;;;22.00;50.20;;;;;;5013242;28;19909;-62
2022/07/13 04:43:36;;;;;;;;;;;22.00;50.30;;;;;;5013193;28;19992;-62
2022/07/13 04:46:03;;;;;;;;;;;22.00;50.50;;;;;;5013511;28;20017;-63
2022/07/13 04:48:29;;;;;;;;;;;22.00;50.60;;;;;;5013146;28;19920;-66
2022/07/13 04:50:55;;;;;;;;;;;21.90;50.80;;;;;;5012857;28;19910;-62
2022/07/13 04:53:21;;;;;;;;;;;21.90;51.00;;;;;;5013049;28;19963;-62
2022/07/13 04:55:46;;;;;;;;;;;22.00;51.10;;;;;;5012930;28;20007;-62
2022/07/13 04:58:12;;;;;;;;;;;21.80;51.30;;;;;;5013257;28;19920;-63
2022/07/13 05:00:38;;;;;;;;;;;21.70;51.70;;;;;;5012948;28;19913;-63
2022/07/13 05:03:03;;;;;;;;;;;21.60;52.00;;;;;;5012702;28;19918;-62
2022/07/13 05:05:31;;;;;;;;;;;21.70;52.10;;;;;;5012973;28;19920;-62
2022/07/13 05:08:00;;;;;;;;;;;21.70;52.80;;;;;;5012569;28;19909;-65
2022/07/13 05:10:26;;;;;;;;;;;21.80;52.90;;;;;;5012124;28;19922;-62
2022/07/13 05:12:51;;;;;;;;;;;21.80;53.40;;;;;;5012690;28;19920;-66
2022/07/13 05:15:18;;;;;;;;;;;21.70;54.30;;;;;;5012429;28;19924;-63
2022/07/13 05:17:43;;;;;;;;;;;21.70;54.50;;;;;;5013011;28;19909;-63
2022/07/13 05:20:09;;;;;;;;;;;21.60;54.70;;;;;;5012669;28;20269;-62
2022/07/13 05:22:35;;;;;;;;;;;21.70;54.40;;;;;;5012514;28;20023;-62
2022/07/13 05:25:00;;;;;;;;;;;21.80;54.80;;;;;;5012456;28;19913;-65
2022/07/13 05:27:26;;;;;;;;;;;21.80;53.80;;;;;;5012437;28;20370;-64
2022/07/13 05:29:52;;;;;;;;;;;21.90;53.60;;;;;;5012482;28;19917;-67
2022/07/13 05:32:17;;;;;;;;;;;21.80;54.60;;;;;;5012533;28;19918;-61
2022/07/13 05:34:43;;;;;;;;;;;21.70;55.10;;;;;;5012136;28;19952;-62
2022/07/13 05:37:09;;;;;;;;;;;21.50;56.10;;;;;;5012431;28;19949;-62
2022/07/13 05:39:34;;;;;;;;;;;21.50;55.70;;;;;;5013008;28;19914;-62
2022/07/13 05:42:00;;;;;;;;;;;21.50;56.10;;;;;;5012239;28;20008;-61
2022/07/13 05:44:25;;;;;;;;;;;21.60;57.10;;;;;;5012595;28;19909;-62
2022/07/13 05:46:51;;;;;;;;;;;21.70;57.00;;;;;;5013304;28;19914;-66
2022/07/13 05:49:17;;;;;;;;;;;22.20;56.60;;;;;;5013161;28;19909;-66
2022/07/13 05:51:42;;;;;;;;;;;23.00;54.50;;;;;;5012042;28;20277;-69
2022/07/13 05:54:08;;;;;;;;;;;23.70;52.00;;;;;;5012292;28;20341;-63
2022/07/13 05:56:33;;;;;;;;;;;24.50;49.70;;;;;;5012165;28;19914;-64
2022/07/13 05:58:59;;;;;;;;;;;25.00;47.80;;;;;;5012117;28;19957;-64
2022/07/13 06:01:25;;;;;;;;;;;25.50;46.80;;;;;;5012008;28;19921;-68
2022/07/13 06:03:50;;;;;;;;;;;25.90;46.30;;;;;;5012237;28;19910;-67
2022/07/13 06:06:16;;;;;;;;;;;26.30;45.70;;;;;;5012280;28;20355;-66
2022/07/13 06:08:42;;;;;;;;;;;26.40;43.40;;;;;;5012096;28;19929;-69
2022/07/13 06:11:07;;;;;;;;;;;26.70;42.40;;;;;;5011657;28;20293;-69
2022/07/13 06:13:33;;;;;;;;;;;26.90;41.90;;;;;;5012084;28;19909;-67
2022/07/13 06:15:59;;;;;;;;;;;27.10;41.50;;;;;;5011838;28;19935;-68
2022/07/13 06:18:25;;;;;;;;;;;27.30;40.90;;;;;;5012181;28;20041;-70
2022/07/13 06:20:51;;;;;;;;;;;27.50;39.90;;;;;;5011597;28;20385;-68
2022/07/13 06:23:18;;;;;;;;;;;27.60;39.20;;;;;;5015896;28;20270;-67
2022/07/13 06:25:46;;;;;;;;;;;27.70;38.30;;;;;;5015768;28;19910;-70
2022/07/13 06:28:12;;;;;;;;;;;27.90;38.50;;;;;;5015760;28;19914;-70
2022/07/13 06:30:38;;;;;;;;;;;28.10;38.60;;;;;;5014447;28;20465;-76
2022/07/13 06:33:04;;;;;;;;;;;28.20;39.50;;;;;;5015864;28;20016;-73
2022/07/13 06:35:30;;;;;;;;;;;28.30;38.90;;;;;;5015504;28;19910;-78
2022/07/13 06:37:55;;;;;;;;;;;28.40;38.60;;;;;;5015618;28;20080;-75
2022/07/13 06:40:21;;;;;;;;;;;28.60;38.10;;;;;;5015382;28;19917;-72
2022/07/13 06:42:47;;;;;;;;;;;28.70;37.60;;;;;;5015560;28;19929;-73
2022/07/13 06:45:13;;;;;;;;;;;28.80;37.10;;;;;;5015784;28;19915;-74
2022/07/13 06:47:39;;;;;;;;;;;28.90;36.20;;;;;;5013977;28;19909;-72
2022/07/13 06:50:08;;;;;;;;;;;29.00;36.80;;;;;;5014279;28;19917;-74
2022/07/13 06:52:34;;;;;;;;;;;29.00;37.00;;;;;;5015375;28;19949;-76
2022/07/13 06:54:59;;;;;;;;;;;29.10;36.50;;;;;;5015172;28;20366;-74
2022/07/13 06:57:25;;;;;;;;;;;29.10;36.00;;;;;;5015199;28;19914;-70
2022/07/13 06:59:51;;;;;;;;;;;29.10;35.80;;;;;;5015282;28;20366;-72
2022/07/13 07:02:16;;;;;;;;;;;29.10;35.40;;;;;;5015273;28;20020;-72
2022/07/13 07:04:42;;;;;;;;;;;29.20;35.60;;;;;;5014910;28;19909;-73
2022/07/13 07:07:08;;;;;;;;;;;29.30;35.80;;;;;;5015048;28;20329;-73
2022/07/13 07:09:34;;;;;;;;;;;29.30;35.80;;;;;;5014868;28;20309;-73
2022/07/13 07:11:59;;;;;;;;;;;29.40;35.70;;;;;;5014984;28;19917;-72
2022/07/13 07:14:25;;;;;;;;;;;29.50;35.80;;;;;;5014965;28;19917;-74
2022/07/13 07:16:51;;;;;;;;;;;29.60;35.50;;;;;;5014960;28;19995;-73
2022/07/13 07:19:17;;;;;;;;;;;29.60;35.30;;;;;;5004697;28;19925;-69
2022/07/13 07:21:42;;;;;;;;;;;29.70;35.00;;;;;;5010209;28;19945;-73
2022/07/13 07:24:08;;;;;;;;;;;29.70;35.10;;;;;;5014853;28;19910;-67
2022/07/13 07:26:34;;;;;;;;;;;29.70;35.50;;;;;;5013788;28;19917;-68
2022/07/13 07:28:59;;;;;;;;;;;29.70;36.40;;;;;;5013545;28;19920;-68
2022/07/13 07:31:25;;;;;;;;;;;29.70;36.30;;;;;;5013154;28;19976;-69
2022/07/13 07:33:51;;;;;;;;;;;29.70;36.90;;;;;;5012815;28;20016;-69
2022/07/13 07:36:17;;;;;;;;;;;29.70;37.50;;;;;;4994511;28;19922;-69
2022/07/13 07:38:43;;;;;;;;;;;29.60;37.80;;;;;;5001170;28;19960;-69
2022/07/13 07:41:10;;;;;;;;;;;29.60;37.40;;;;;;5013374;28;19948;-68
2022/07/13 07:43:36;;;;;;;;;;;29.40;38.10;;;;;;5013412;28;20366;-73
2022/07/13 07:46:02;;;;;;;;;;;29.40;38.90;;;;;;5013359;28;19945;-74
2022/07/13 07:48:28;;;;;;;;;;;29.30;39.00;;;;;;5013462;28;19972;-68
2022/07/13 07:50:53;;;;;;;;;;;29.30;39.20;;;;;;5014376;28;20259;-67
2022/07/13 07:53:19;;;;;;;;;;;29.20;39.00;;;;;;5014135;28;19914;-73
2022/07/13 07:55:44;;;;;;;;;;;29.10;39.00;;;;;;5014074;28;20012;-70
2022/07/13 07:58:10;;;;;;;;;;;29.00;39.20;;;;;;5014153;28;19909;-70
2022/07/13 08:00:35;;;;;;;;;;;28.90;39.20;;;;;;5000485;28;19913;-71
2022/07/13 08:03:03;;;;;;;;;;;28.90;40.10;;;;;;5014053;28;19972;-76
2022/07/13 08:05:30;;;;;;;;;;;28.90;39.30;;;;;;5012365;28;19920;-74
2022/07/13 08:07:55;;;;;;;;;;;28.90;38.70;;;;;;5015338;28;19924;-74
2022/07/13 08:10:21;;;;;;;;;;;28.90;38.90;;;;;;5014256;28;19921;-74
2022/07/13 08:12:47;;;;;;;;;;;28.90;39.10;;;;;;5014987;28;19909;-71
2022/07/13 08:15:12;;;;;;;;;;;29.00;38.50;;;;;;5014014;28;19920;-72
2022/07/13 08:17:39;;;;;;;;;;;28.90;37.90;;;;;;5013834;28;19921;-73
2022/07/13 08:20:05;;;;;;;;;;;28.90;38.10;;;;;;5014308;28;19921;-77
2022/07/13 08:22:30;;;;;;;;;;;28.90;36.90;;;;;;5013757;28;20011;-73
2022/07/13 08:24:56;;;;;;;;;;;28.90;37.20;;;;;;5013782;28;20008;-73
2022/07/13 08:27:21;;;;;;;;;;;28.90;36.00;;;;;;5013685;28;19960;-73
2022/07/13 08:29:47;;;;;;;;;;;28.80;36.30;;;;;;5013757;28;20358;-74
2022/07/13 08:32:13;;;;;;;;;;;28.70;35.70;;;;;;5013533;28;19910;-72
2022/07/13 08:40:07;;;;;;;;;;;28.60;35.60;;;;;;5013634;28;19916;-71
2022/07/13 08:42:32;;;;;;;;;;;28.70;36.50;;;;;;5011828;28;19918;-72
2022/07/13 08:44:58;;;;;;;;;;;28.80;36.00;;;;;;5012238;28;20358;-72
2022/07/13 08:47:27;;;;;;;;;;;28.90;36.00;;;;;;5013107;28;20281;-73
2022/07/13 08:49:54;;;;;;;;;;;29.00;35.30;;;;;;5013231;28;19920;-73
2022/07/13 08:52:20;;;;;;;;;;;29.10;35.00;;;;;;5013006;28;20000;-72
2022/07/13 08:54:45;;;;;;;;;;;29.10;34.90;;;;;;5013046;28;20415;-74
2022/07/13 08:57:11;;;;;;;;;;;29.10;35.20;;;;;;5013196;28;19916;-74
2022/07/13 08:59:37;;;;;;;;;;;29.00;35.20;;;;;;5012962;28;19957;-73
2022/07/13 09:02:02;;;;;;;;;;;29.10;34.90;;;;;;5012864;28;20297;-71
2022/07/13 09:04:28;;;;;;;;;;;29.00;35.20;;;;;;5012792;28;19932;-72
2022/07/13 09:06:56;;;;;;;;;;;28.90;35.20;;;;;;5012806;28;19945;-72
2022/07/13 09:09:33;;;;;;;;;;;28.90;35.30;;;;;;5012676;28;20053;-72
2022/07/13 09:12:16;;;;;;;;;;;28.90;35.00;;;;;;5012734;28;19917;-73
2022/07/13 09:14:42;;;;;;;;;;;28.90;35.90;;;;;;5012764;28;19909;-73
2022/07/13 09:17:18;;;;;;;;;;;28.80;35.90;;;;;;5012815;28;19913;-76
2022/07/13 09:19:44;;;;;;;;;;;28.80;36.20;;;;;;5012419;28;19919;-73
2022/07/13 09:22:11;;;;;;;;;;;28.80;36.00;;;;;;5012382;28;19921;-72
2022/07/13 09:24:43;;;;;;;;;;;28.90;36.10;;;;;;5011936;28;20339;-71
2022/07/13 09:27:09;;;;;;;;;;;28.80;35.60;;;;;;5012331;28;20251;-69
2022/07/13 09:29:36;;;;;;;;;;;28.60;35.80;;;;;;5012538;28;19910;-68
2022/07/13 09:32:04;;;;;;;;;;;28.40;36.30;;;;;;5012460;28;20266;-72
2022/07/13 09:34:46;;;;;;;;;;;28.30;36.90;;;;;;5011277;28;19918;-70
2022/07/13 09:37:13;;;;;;;;;;;28.40;37.00;;;;;;5011671;28;19913;-70
2022/07/13 09:39:56;;;;;;;;;;;28.40;36.60;;;;;;5011294;28;19918;-72
2022/07/13 09:42:26;;;;;;;;;;;28.40;36.00;;;;;;5011163;28;20015;-73
2022/07/13 09:47:47;;;;;;;;;;;28.20;35.90;;;;;;5008926;28;19920;-77
2022/07/13 09:50:12;;;;;;;;;;;28.10;35.60;;;;;;5011473;28;19909;-72
2022/07/13 09:52:38;;;;;;;;;;;28.10;36.80;;;;;;5008671;28;20448;-72
2022/07/13 09:55:06;;;;;;;;;;;27.90;37.90;;;;;;5011184;28;19910;-68
2022/07/13 09:57:33;;;;;;;;;;;27.90;38.10;;;;;;5014769;28;20293;-72
2022/07/13 09:59:59;;;;;;;;;;;27.90;38.30;;;;;;5015420;28;20280;-77
2022/07/13 10:02:26;;;;;;;;;;;27.90;38.60;;;;;;5015450;28;19918;-71
2022/07/13 10:04:52;;;;;;;;;;;27.90;38.40;;;;;;5015591;28;19913;-69
2022/07/13 10:07:18;;;;;;;;;;;27.90;38.60;;;;;;5015091;28;20344;-72
2022/07/13 10:09:43;;;;;;;;;;;27.90;38.50;;;;;;5016077;28;19929;-74
2022/07/13 10:12:10;;;;;;;;;;;27.80;39.40;;;;;;5016122;28;20012;-67
2022/07/13 10:14:37;;;;;;;;;;;27.70;39.10;;;;;;5016604;28;20318;-73
2022/07/13 10:17:21;;;;;;;;;;;27.70;39.10;;;;;;5016018;28;19913;-71
2022/07/13 10:19:57;;;;;;;;;;;27.60;39.90;;;;;;5016403;28;19917;-68
2022/07/13 10:22:25;;;;;;;;;;;27.60;40.10;;;;;;5015883;28;20004;-65
2022/07/13 10:24:52;;;;;;;;;;;27.50;40.50;;;;;;5016165;28;19909;-61
2022/07/13 10:27:21;;;;;;;;;;;27.50;41.50;;;;;;5015741;28;20370;-63
2022/07/13 10:29:50;;;;;;;;;;;27.50;41.30;;;;;;5015827;28;20339;-62
2022/07/13 10:32:17;;;;;;;;;;;27.60;41.60;;;;;;5015706;28;19910;-60
2022/07/13 10:34:59;;;;;;;;;;;27.60;42.00;;;;;;5015182;28;20699;-62
2022/07/13 10:37:26;;;;;;;;;;;27.60;42.40;;;;;;5014592;28;19913;-61
2022/07/13 10:40:13;;;;;;;;;;;27.60;42.50;;;;;;5014621;28;20259;-65
2022/07/13 10:42:53;;;;;;;;;;;27.60;42.10;;;;;;5014214;28;19944;-61
2022/07/13 10:45:31;;;;;;;;;;;27.60;42.60;;;;;;5007009;28;19917;-62
2022/07/13 10:47:57;;;;;;;;;;;27.60;42.80;;;;;;5003047;28;19914;-63
2022/07/13 10:50:22;;;;;;;;;;;27.60;43.10;;;;;;5014253;28;19913;-62
2022/07/13 10:52:48;;;;;;;;;;;27.60;43.40;;;;;;5014429;28;19917;-62
2022/07/13 10:55:27;;;;;;;;;;;27.60;43.40;;;;;;5014431;28;19910;-61
2022/07/13 10:57:52;;;;;;;;;;;27.60;43.30;;;;;;5014554;28;19952;-64
2022/07/13 11:00:28;;;;;;;;;;;27.60;43.00;;;;;;5015339;28;19953;-62
2022/07/13 11:03:05;;;;;;;;;;;27.60;43.10;;;;;;5010676;28;19985;-65
2022/07/13 11:05:35;;;;;;;;;;;27.60;42.90;;;;;;5014658;28;20332;-66
2022/07/13 11:08:13;;;;;;;;;;;27.60;43.20;;;;;;5013679;28;20016;-63
2022/07/13 11:10:39;;;;;;;;;;;27.60;42.90;;;;;;5014430;28;20040;-61
2022/07/13 11:13:09;;;;;;;;;;;27.70;44.00;;;;;;5014093;28;19929;-62
2022/07/13 11:15:52;;;;;;;;;;;27.70;44.40;;;;;;5013557;28;19917;-63
2022/07/13 11:18:34;;;;;;;;;;;27.70;44.10;;;;;;5013425;28;19942;-63
2022/07/13 11:21:14;;;;;;;;;;;27.70;44.00;;;;;;5009211;28;19956;-66
2022/07/13 11:26:42;;;;;;;;;;;27.80;43.70;;;;;;5010862;28;20047;-63
2022/07/13 11:29:26;;;;;;;;;;;27.80;43.80;;;;;;5005295;28;19921;-63
2022/07/13 11:31:59;;;;;;;;;;;27.80;44.10;;;;;;5000839;28;20396;-64
2022/07/13 11:34:25;;;;;;;;;;;27.80;43.40;;;;;;5014475;28;19909;-64
2022/07/13 11:36:52;;;;;;;;;;;27.70;42.90;;;;;;5013970;28;19909;-62
2022/07/13 11:39:28;;;;;;;;;;;27.70;42.60;;;;;;5014301;28;20033;-63
2022/07/13 11:41:55;;;;;;;;;;;27.70;41.00;;;;;;5013870;28;19997;-66
2022/07/13 11:44:24;;;;;;;;;;;27.60;40.60;;;;;;5013405;28;19928;-69
2022/07/13 11:46:50;;;;;;;;;;;27.60;40.70;;;;;;5013551;28;19910;-69
2022/07/13 11:49:16;;;;;;;;;;;27.70;39.60;;;;;;5014230;28;19913;-65
2022/07/13 11:51:43;;;;;;;;;;;27.60;37.10;;;;;;5008448;28;20388;-65
2022/07/13 11:54:16;;;;;;;;;;;27.60;38.20;;;;;;5006355;28;19957;-63
2022/07/13 11:56:49;;;;;;;;;;;27.60;37.40;;;;;;5010497;28;20382;-62
2022/07/13 11:59:33;;;;;;;;;;;27.60;37.90;;;;;;5012538;28;19913;-61
2022/07/13 12:01:59;;;;;;;;;;;27.60;38.00;;;;;;5013885;28;19922;-62
2022/07/13 12:04:25;;;;;;;;;;;27.60;38.80;;;;;;5013898;28;19967;-66
2022/07/13 12:06:51;;;;;;;;;;;27.60;39.20;;;;;;5014271;28;19917;-63
2022/07/13 12:09:18;;;;;;;;;;;27.60;37.50;;;;;;5013455;28;19934;-64
2022/07/13 12:11:44;;;;;;;;;;;27.60;37.90;;;;;;5013381;28;19913;-64
2022/07/13 12:14:11;;;;;;;;;;;27.70;37.80;;;;;;5013392;28;19940;-62
2022/07/13 12:16:37;;;;;;;;;;;27.70;38.30;;;;;;5013230;28;20354;-66
2022/07/13 12:19:04;;;;;;;;;;;27.70;37.80;;;;;;5012616;28;20029;-64
2022/07/13 12:21:30;;;;;;;;;;;27.70;37.50;;;;;;5006334;28;19917;-64
2022/07/13 12:23:57;;;;;;;;;;;27.70;37.00;;;;;;5012844;28;19984;-66
2022/07/13 12:26:23;;;;;;;;;;;27.70;37.10;;;;;;5009823;28;19917;-63
2022/07/13 12:28:49;;;;;;;;;;;27.80;36.80;;;;;;5012797;28;19910;-64
2022/07/13 12:31:18;;;;;;;;;;;27.80;36.40;;;;;;5012417;28;19913;-64
2022/07/13 12:33:44;;;;;;;;;;;27.80;36.30;;;;;;5007566;28;19959;-65
2022/07/13 12:36:11;;;;;;;;;;;27.80;36.60;;;;;;5013027;28;20297;-62
2022/07/13 12:38:56;;;;;;;;;;;27.80;35.20;;;;;;5012953;28;19921;-64
2022/07/13 12:41:26;;;;;;;;;;;27.80;34.90;;;;;;5009090;28;19914;-62
2022/07/13 12:43:59;;;;;;;;;;;27.80;35.60;;;;;;5012515;28;19913;-64
2022/07/13 12:46:25;;;;;;;;;;;27.80;35.70;;;;;;5008253;28;19956;-64
2022/07/13 12:49:01;;;;;;;;;;;27.70;35.30;;;;;;5012556;28;19918;-66
2022/07/13 12:51:42;;;;;;;;;;;27.70;34.70;;;;;;5012702;28;19914;-66
2022/07/13 12:54:08;;;;;;;;;;;27.70;34.80;;;;;;4997351;28;20019;-67
2022/07/13 12:56:45;;;;;;;;;;;27.70;34.90;;;;;;5012705;28;20000;-64
2022/07/13 12:59:11;;;;;;;;;;;27.70;35.10;;;;;;5013067;28;19910;-62
2022/07/13 13:01:37;;;;;;;;;;;27.70;35.30;;;;;;5012739;28;20000;-62
2022/07/13 13:04:07;;;;;;;;;;;27.60;35.60;;;;;;5012696;28;19909;-64
2022/07/13 13:06:33;;;;;;;;;;;27.70;36.10;;;;;;5012029;28;19979;-64
2022/07/13 13:09:02;;;;;;;;;;;27.70;35.40;;;;;;5011667;28;19929;-62
2022/07/13 13:11:27;;;;;;;;;;;27.70;35.40;;;;;;5011707;28;20413;-64
2022/07/13 13:13:53;;;;;;;;;;;27.70;36.10;;;;;;5022469;28;20012;-63
2022/07/13 13:16:18;;;;;;;;;;;27.70;36.20;;;;;;5010316;28;19921;-63
2022/07/13 13:18:44;;;;;;;;;;;27.70;36.00;;;;;;5011620;28;19923;-62
2022/07/13 13:21:09;;;;;;;;;;;27.60;35.80;;;;;;5011598;28;19913;-64
2022/07/13 13:23:35;;;;;;;;;;;27.60;36.80;;;;;;5011714;28;19918;-63
2022/07/13 13:26:00;;;;;;;;;;;27.60;37.50;;;;;;5009173;28;20424;-64
2022/07/13 13:28:26;;;;;;;;;;;27.60;38.00;;;;;;5001537;28;20295;-63
2022/07/13 13:30:51;;;;;;;;;;;27.60;37.90;;;;;;5010743;28;19920;-62
2022/07/13 13:33:17;;;;;;;;;;;27.60;37.50;;;;;;5011456;28;19948;-64
2022/07/13 13:35:43;;;;;;;;;;;27.60;38.40;;;;;;5011529;28;19913;-63
2022/07/13 13:38:12;;;;;;;;;;;27.70;39.10;;;;;;5011452;28;20350;-63
2022/07/13 13:40:38;;;;;;;;;;;27.70;39.50;;;;;;5011512;28;19916;-63
2022/07/13 13:43:04;;;;;;;;;;;27.60;39.40;;;;;;5012206;28;19924;-65
2022/07/13 13:45:29;;;;;;;;;;;27.60;40.20;;;;;;5011934;28;20003;-64
2022/07/13 13:47:55;;;;;;;;;;;27.60;39.60;;;;;;5012362;28;19914;-63
2022/07/13 13:50:21;;;;;;;;;;;27.70;39.60;;;;;;5012001;28;20277;-64
2022/07/13 13:52:46;;;;;;;;;;;27.60;40.10;;;;;;5012183;28;19916;-64
2022/07/13 13:55:12;;;;;;;;;;;27.60;39.60;;;;;;5012145;28;19921;-62
2022/07/13 13:57:37;;;;;;;;;;;27.60;38.80;;;;;;5011844;28;19914;-64
2022/07/13 14:00:03;;;;;;;;;;;27.70;38.50;;;;;;5012106;28;19967;-62
2022/07/13 14:02:29;;;;;;;;;;;27.70;36.40;;;;;;5012003;28;19922;-63
2022/07/13 14:04:55;;;;;;;;;;;27.70;38.40;;;;;;5012150;28;19972;-63
2022/07/13 14:07:20;;;;;;;;;;;27.70;38.40;;;;;;5011902;28;19917;-63
2022/07/13 14:09:48;;;;;;;;;;;27.70;38.60;;;;;;5012067;28;19932;-63
2022/07/13 14:12:13;;;;;;;;;;;27.80;38.60;;;;;;5011849;28;19910;-64
2022/07/13 14:14:39;;;;;;;;;;;27.80;38.40;;;;;;5011958;28;19914;-63
2022/07/13 14:17:04;;;;;;;;;;;27.80;37.10;;;;;;5011893;28;19972;-62
2022/07/13 14:19:30;;;;;;;;;;;27.70;36.70;;;;;;5011434;28;20008;-62
2022/07/13 14:21:56;;;;;;;;;;;27.70;37.30;;;;;;5011596;28;20290;-63
2022/07/13 14:24:23;;;;;;;;;;;27.70;37.80;;;;;;5010927;28;19963;-63
2022/07/13 14:26:49;;;;;;;;;;;27.70;38.60;;;;;;5010740;28;19929;-65